createdAt,value
2017-07-21T00:02:04.846Z,18.10
2017-07-21T00:04:42.881Z,18.00
2017-07-21T00:07:11.054Z,18.00
2017-07-21T00:09:41.968Z,18.00
2017-07-21T00:12:10.113Z,18.10
2017-07-21T00:14:38.239Z,18.10
2017-07-21T00:17:07.902Z,18.10
2017-07-21T00:19:36.023Z,18.10
2017-07-21T00:22:25.969Z,18.00
2017-07-21T00:24:55.068Z,17.90
2017-07-21T00:27:27.118Z,17.90
2017-07-21T00:29:56.714Z,17.80
2017-07-21T00:32:30.412Z,17.80
2017-07-21T00:34:58.523Z,17.80
2017-07-21T00:37:26.658Z,17.90
2017-07-21T00:39:54.789Z,17.90
2017-07-21T00:42:22.973Z,17.90
2017-07-21T00:44:51.698Z,18.00
2017-07-21T00:47:20.067Z,18.00
2017-07-21T00:49:48.246Z,18.00
2017-07-21T00:52:16.410Z,18.10
2017-07-21T00:54:45.782Z,18.10
2017-07-21T00:57:21.383Z,18.10
2017-07-21T00:59:50.556Z,18.10
2017-07-21T01:02:18.688Z,18.10
2017-07-21T01:04:48.715Z,18.10
2017-07-21T01:07:17.590Z,18.20
2017-07-21T01:09:51.354Z,18.10
2017-07-21T01:12:19.465Z,18.10
2017-07-21T01:14:47.584Z,18.10
2017-07-21T01:20:16.928Z,18.20
2017-07-21T01:22:45.698Z,18.20
2017-07-21T01:25:14.485Z,18.20
2017-07-21T01:27:42.644Z,18.20
2017-07-21T01:30:10.775Z,18.20
2017-07-21T01:32:40.849Z,18.20
2017-07-21T01:35:10.745Z,18.20
2017-07-21T01:37:38.871Z,18.10
2017-07-21T01:40:10.962Z,18.20
2017-07-21T01:42:40.038Z,18.20
2017-07-21T01:45:08.150Z,18.20
2017-07-21T01:47:43.376Z,18.20
2017-07-21T01:50:13.406Z,18.20
2017-07-21T01:52:41.734Z,18.20
2017-07-21T01:55:14.757Z,18.20
2017-07-21T01:57:43.667Z,18.20
2017-07-21T02:00:11.815Z,18.20
2017-07-21T02:02:41.855Z,18.20
2017-07-21T02:05:09.978Z,18.20
2017-07-21T02:07:38.839Z,18.20
2017-07-21T02:10:14.113Z,18.20
2017-07-21T02:12:42.210Z,18.20
2017-07-21T02:15:10.322Z,18.20
2017-07-21T02:17:42.478Z,18.20
2017-07-21T02:20:27.541Z,18.10
2017-07-21T02:22:56.643Z,18.00
2017-07-21T02:25:28.306Z,17.90
2017-07-21T02:28:08.712Z,17.70
2017-07-21T02:30:36.871Z,17.60
2017-07-21T02:33:05.845Z,17.60
2017-07-21T02:35:33.954Z,17.50
2017-07-21T02:38:02.078Z,17.50
2017-07-21T02:40:31.850Z,17.50
2017-07-21T02:43:01.939Z,17.40
2017-07-21T02:45:30.047Z,17.30
2017-07-21T02:47:58.175Z,17.30
2017-07-21T02:50:27.230Z,17.20
2017-07-21T02:52:55.336Z,17.20
2017-07-21T02:55:23.426Z,17.30
2017-07-21T02:57:54.144Z,17.30
2017-07-21T03:00:38.137Z,17.30
2017-07-21T03:03:08.663Z,17.30
2017-07-21T03:05:36.784Z,17.30
2017-07-21T03:08:05.405Z,17.30
2017-07-21T03:10:33.510Z,17.20
2017-07-21T03:13:08.549Z,17.20
2017-07-21T03:15:48.038Z,17.20
2017-07-21T03:18:18.530Z,17.20
2017-07-21T03:20:46.690Z,17.10
2017-07-21T03:23:23.316Z,17.10
2017-07-21T03:25:51.413Z,17.10
2017-07-21T03:28:19.542Z,17.00
2017-07-21T03:30:47.669Z,17.00
2017-07-21T03:33:16.996Z,17.00
2017-07-21T03:35:45.106Z,17.00
2017-07-21T03:38:18.423Z,17.00
2017-07-21T03:40:53.974Z,17.00
2017-07-21T03:43:22.876Z,17.10
2017-07-21T03:45:51.018Z,17.00
2017-07-21T03:48:19.121Z,17.10
2017-07-21T03:50:47.226Z,17.00
2017-07-21T03:53:25.174Z,17.10
2017-07-21T03:55:53.292Z,17.00
2017-07-21T03:58:41.731Z,17.00
2017-07-21T04:01:09.876Z,17.00
2017-07-21T04:03:38.738Z,17.00
2017-07-21T04:06:07.597Z,17.00
2017-07-21T04:08:35.722Z,17.00
2017-07-21T04:11:09.010Z,16.90
2017-07-21T04:13:37.152Z,16.90
2017-07-21T04:16:05.251Z,16.80
2017-07-21T04:18:34.155Z,16.70
2017-07-21T04:21:08.382Z,16.70
2017-07-21T04:23:36.514Z,16.70
2017-07-21T04:26:04.689Z,16.80
2017-07-21T04:28:32.803Z,16.90
2017-07-21T04:31:01.682Z,17.20
2017-07-21T04:33:29.828Z,17.20
2017-07-21T04:35:57.923Z,17.80
2017-07-21T04:38:26.051Z,17.80
2017-07-21T04:40:54.185Z,17.90
2017-07-21T04:43:22.299Z,18.30
2017-07-21T04:45:50.409Z,18.40
2017-07-21T04:48:19.293Z,17.80
2017-07-21T04:50:58.392Z,17.80
2017-07-21T04:53:26.495Z,17.60
2017-07-21T04:55:54.595Z,17.80
2017-07-21T04:58:22.710Z,17.60
2017-07-21T05:00:50.837Z,17.40
2017-07-21T05:03:22.330Z,17.30
2017-07-21T05:05:50.464Z,17.20
2017-07-21T05:08:19.600Z,17.10
2017-07-21T05:10:47.764Z,17.10
2017-07-21T05:13:17.856Z,17.10
2017-07-21T05:15:46.782Z,17.10
2017-07-21T05:18:14.874Z,17.10
2017-07-21T05:21:02.751Z,17.20
2017-07-21T05:23:36.650Z,17.20
2017-07-21T05:26:04.867Z,17.20
2017-07-21T05:28:32.991Z,17.20
2017-07-21T05:31:08.774Z,17.30
2017-07-21T05:33:36.920Z,17.40
2017-07-21T05:36:05.009Z,17.50
2017-07-21T05:38:33.196Z,17.50
2017-07-21T05:41:01.324Z,17.50
2017-07-21T05:43:29.441Z,17.60
2017-07-21T05:45:57.574Z,17.70
2017-07-21T05:48:25.690Z,17.70
2017-07-21T05:51:00.009Z,17.70
2017-07-21T05:53:29.106Z,17.70
2017-07-21T05:55:57.246Z,17.70
2017-07-21T05:58:25.449Z,17.70
2017-07-21T06:00:53.604Z,17.70
2017-07-21T06:03:22.521Z,17.90
2017-07-21T06:05:50.636Z,17.90
2017-07-21T06:08:18.761Z,18.00
2017-07-21T06:10:55.549Z,17.90
2017-07-21T06:13:28.461Z,17.70
2017-07-21T06:16:16.734Z,17.80
2017-07-21T06:18:51.827Z,18.00
2017-07-21T06:21:27.810Z,18.10
2017-07-21T06:23:55.951Z,18.10
2017-07-21T06:26:29.043Z,18.20
2017-07-21T06:29:00.061Z,18.20
2017-07-21T06:31:28.278Z,18.20
2017-07-21T06:33:56.679Z,18.30
2017-07-21T06:36:27.314Z,18.20
2017-07-21T06:38:55.576Z,18.10
2017-07-21T06:41:23.831Z,18.00
2017-07-21T06:43:52.012Z,17.90
2017-07-21T06:46:21.212Z,18.00
2017-07-21T06:48:49.499Z,18.10
2017-07-21T06:51:18.111Z,18.10
2017-07-21T06:53:46.283Z,18.10
2017-07-21T06:56:14.731Z,18.30
2017-07-21T06:58:43.764Z,18.40
2017-07-21T07:01:11.892Z,18.40
2017-07-21T07:03:40.312Z,18.50
2017-07-21T07:06:08.626Z,18.40
2017-07-21T07:08:39.098Z,18.40
2017-07-21T07:11:09.467Z,18.50
2017-07-21T07:13:37.896Z,18.50
2017-07-21T07:16:06.074Z,18.80
2017-07-21T07:18:35.243Z,18.80
2017-07-21T07:21:03.401Z,18.80
2017-07-21T07:23:31.980Z,19.00
2017-07-21T07:26:00.493Z,19.20
2017-07-21T07:28:28.622Z,19.40
2017-07-21T07:30:58.478Z,19.40
2017-07-21T07:33:30.184Z,19.50
2017-07-21T07:36:04.230Z,19.40
2017-07-21T07:38:37.426Z,19.40
2017-07-21T07:41:06.203Z,19.40
2017-07-21T07:43:35.107Z,19.60
2017-07-21T07:46:03.269Z,19.60
2017-07-21T07:48:32.195Z,19.40
2017-07-21T07:51:01.196Z,19.40
2017-07-21T07:53:33.898Z,19.30
2017-07-21T07:56:02.028Z,19.20
2017-07-21T07:58:34.064Z,19.20
2017-07-21T08:01:02.268Z,19.20
2017-07-21T08:03:30.370Z,19.30
2017-07-21T08:06:02.726Z,19.80
2017-07-21T08:08:37.081Z,19.80
2017-07-21T08:11:05.200Z,19.90
2017-07-21T08:13:36.534Z,20.10
2017-07-21T08:16:07.035Z,20.00
2017-07-21T08:18:36.821Z,19.90
2017-07-21T08:21:05.913Z,19.70
2017-07-21T08:23:34.647Z,19.60
2017-07-21T08:26:05.748Z,19.50
2017-07-21T08:28:34.803Z,19.40
2017-07-21T08:31:09.328Z,19.30
2017-07-21T08:33:37.430Z,19.30
2017-07-21T08:36:08.771Z,19.40
2017-07-21T08:38:39.009Z,19.50
2017-07-21T08:41:08.739Z,19.70
2017-07-21T08:43:37.631Z,20.00
2017-07-21T08:46:07.076Z,20.00
2017-07-21T08:48:36.677Z,20.00
2017-07-21T08:51:04.868Z,20.00
2017-07-21T08:53:34.951Z,20.00
2017-07-21T09:37:08.166Z,20.00
2017-07-21T09:39:46.212Z,21.10
2017-07-21T09:42:15.820Z,21.00
2017-07-21T09:44:53.297Z,20.80
2017-07-21T14:54:19.120Z,20.70
2017-07-21T14:56:47.243Z,25.20
2017-07-21T14:59:15.378Z,25.30
2017-07-21T15:01:43.484Z,25.60
2017-07-21T15:04:11.610Z,25.80
2017-07-21T15:06:39.767Z,25.80
2017-07-21T15:09:07.927Z,26.00
2017-07-21T15:11:36.143Z,25.90
2017-07-21T15:14:04.346Z,25.90
2017-07-21T15:16:32.506Z,25.90
2017-07-21T15:19:00.699Z,25.90
2017-07-21T15:21:36.448Z,25.80
2017-07-21T15:24:04.580Z,25.80
2017-07-21T15:26:33.682Z,26.00
2017-07-21T15:29:01.956Z,26.00
2017-07-21T15:31:30.204Z,26.00
2017-07-21T15:33:58.514Z,26.00
2017-07-21T15:36:26.858Z,25.80
2017-07-21T15:38:55.092Z,25.20
2017-07-21T15:41:23.232Z,24.70
2017-07-21T15:43:53.694Z,24.60
2017-07-21T15:46:24.839Z,24.50
2017-07-21T15:48:54.934Z,24.40
2017-07-21T15:51:33.861Z,24.10
2017-07-21T15:54:02.010Z,23.90
2017-07-21T15:56:30.238Z,23.70
2017-07-21T15:58:58.411Z,23.50
2017-07-21T16:01:26.556Z,23.40
2017-07-21T16:03:54.702Z,23.30
2017-07-21T16:06:22.869Z,23.30
2017-07-21T16:08:51.095Z,23.30
2017-07-21T16:11:19.235Z,23.10
2017-07-21T16:13:47.380Z,23.10
2017-07-21T16:16:23.334Z,23.00
2017-07-21T16:18:52.544Z,23.10
2017-07-21T16:21:31.687Z,23.30
2017-07-21T16:24:07.130Z,23.40
2017-07-21T16:26:37.183Z,23.40
2017-07-21T16:29:08.088Z,23.50
2017-07-21T16:31:36.222Z,23.50
2017-07-21T16:34:04.414Z,23.60
2017-07-21T16:36:33.315Z,23.50
2017-07-21T16:39:01.487Z,23.50
2017-07-21T16:41:29.923Z,23.60
2017-07-21T16:43:59.858Z,23.60
2017-07-21T16:46:28.036Z,23.60
2017-07-21T16:48:56.168Z,23.30
2017-07-21T16:51:25.175Z,23.20
2017-07-21T16:53:53.880Z,23.10
2017-07-21T16:56:22.395Z,23.00
2017-07-21T16:58:50.555Z,22.80
2017-07-21T17:01:18.740Z,23.00
2017-07-21T17:03:47.672Z,23.20
2017-07-21T17:06:16.640Z,23.10
2017-07-21T17:08:44.988Z,23.30
2017-07-21T17:11:15.591Z,23.40
2017-07-21T17:13:45.301Z,23.10
2017-07-21T17:16:14.364Z,23.40
2017-07-21T17:18:42.567Z,23.40
2017-07-21T17:21:14.343Z,23.50
2017-07-21T17:23:43.001Z,23.40
2017-07-21T17:26:23.454Z,23.30
2017-07-21T17:28:53.308Z,23.30
2017-07-21T17:31:23.068Z,23.60
2017-07-21T17:33:51.981Z,23.80
2017-07-21T17:36:20.098Z,23.80
2017-07-21T17:38:50.302Z,23.70
2017-07-21T17:41:19.829Z,23.40
2017-07-21T17:43:48.026Z,23.40
2017-07-21T17:46:16.161Z,23.50
2017-07-21T17:48:45.329Z,23.30
2017-07-21T17:51:14.091Z,23.20
2017-07-21T17:53:43.009Z,23.30
2017-07-21T17:56:11.145Z,23.30
2017-07-21T17:58:39.284Z,23.10
2017-07-21T18:01:08.809Z,23.10
2017-07-21T18:03:37.238Z,23.10
2017-07-21T18:06:06.638Z,23.20
2017-07-21T18:08:45.442Z,23.20
2017-07-21T18:11:13.741Z,23.20
2017-07-21T18:13:41.874Z,23.00
2017-07-21T18:16:11.841Z,22.70
2017-07-21T18:18:40.000Z,22.80
2017-07-21T18:21:14.433Z,22.70
2017-07-21T18:23:42.825Z,22.70
2017-07-21T18:26:10.980Z,22.60
2017-07-21T18:28:39.185Z,22.50
2017-07-21T18:31:08.464Z,22.60
2017-07-21T18:33:36.649Z,22.40
2017-07-21T18:36:04.779Z,22.40
2017-07-21T18:38:32.942Z,22.50
2017-07-21T18:41:03.533Z,22.70
2017-07-21T18:43:33.819Z,22.50
2017-07-21T18:46:11.468Z,22.30
2017-07-21T18:48:40.603Z,22.20
2017-07-21T18:51:14.369Z,22.20
2017-07-21T18:53:43.378Z,22.20
2017-07-21T18:56:15.482Z,21.90
2017-07-21T19:01:28.119Z,21.70
2017-07-21T19:03:56.378Z,21.40
2017-07-21T19:06:26.691Z,21.20
2017-07-21T19:08:57.557Z,20.90
2017-07-21T19:11:25.721Z,20.80
2017-07-21T19:13:53.835Z,20.70
2017-07-21T19:16:22.996Z,20.60
2017-07-21T19:18:53.665Z,20.50
2017-07-21T19:21:23.409Z,20.40
2017-07-21T19:24:14.641Z,20.30
2017-07-21T19:26:42.976Z,20.20
2017-07-21T19:29:21.996Z,20.10
2017-07-21T19:34:36.479Z,19.90
2017-07-21T19:37:28.935Z,19.70
2017-07-21T19:40:01.552Z,19.70
2017-07-21T19:42:31.249Z,19.60
2017-07-21T19:45:01.904Z,19.50
2017-07-21T19:47:32.630Z,19.40
2017-07-21T19:50:03.082Z,19.40
2017-07-21T19:52:38.205Z,19.30
2017-07-21T19:55:07.133Z,19.30
2017-07-21T19:57:37.199Z,19.20
2017-07-21T20:00:14.248Z,19.10
2017-07-21T20:02:54.264Z,19.10
2017-07-21T20:05:41.084Z,19.10
2017-07-21T20:08:17.657Z,19.10
2017-07-21T20:16:23.878Z,18.90
2017-07-21T20:21:45.003Z,18.90
2017-07-21T20:24:25.479Z,18.90
2017-07-21T20:30:03.487Z,18.80
2017-07-21T20:32:32.312Z,18.80
2017-07-21T20:35:02.511Z,18.70
2017-07-21T20:37:32.406Z,18.60
2017-07-21T20:40:02.034Z,18.60
2017-07-21T20:42:30.197Z,18.60
2017-07-21T20:45:47.575Z,18.50
2017-07-21T20:48:35.131Z,18.50
2017-07-21T20:51:04.270Z,18.40
2017-07-21T20:53:36.315Z,18.30
2017-07-21T20:56:10.258Z,18.30
2017-07-21T20:58:38.705Z,18.30
2017-07-21T21:01:06.954Z,18.30
2017-07-21T21:03:52.945Z,18.30
2017-07-21T21:06:22.001Z,18.20
2017-07-21T21:08:56.188Z,18.10
2017-07-21T21:11:24.274Z,18.10
2017-07-21T21:13:53.245Z,18.10
2017-07-21T21:16:21.468Z,18.00
2017-07-21T21:18:49.605Z,18.00
2017-07-21T21:21:19.044Z,17.90
2017-07-21T21:23:47.242Z,17.90
2017-07-21T21:26:17.580Z,17.90
2017-07-21T21:28:46.897Z,17.90
2017-07-21T21:31:16.229Z,17.80
2017-07-21T21:33:44.395Z,17.80
2017-07-21T21:36:18.691Z,17.70
2017-07-21T21:38:48.163Z,17.70
2017-07-21T21:41:18.524Z,17.90
2017-07-21T21:43:47.279Z,18.00
2017-07-21T21:46:18.406Z,18.00
2017-07-21T21:48:47.325Z,17.90
2017-07-21T21:51:17.487Z,17.90
2017-07-21T21:53:46.522Z,17.90
2017-07-21T21:56:14.735Z,17.90
2017-07-21T21:58:42.948Z,17.90
2017-07-21T22:01:11.090Z,17.80
2017-07-21T22:03:41.231Z,17.70
2017-07-21T22:06:10.147Z,17.60
2017-07-21T22:08:38.318Z,17.60
2017-07-21T22:11:07.255Z,17.60
2017-07-21T22:16:30.531Z,17.60
2017-07-21T22:18:59.729Z,17.50
2017-07-21T22:21:27.852Z,17.50
2017-07-21T22:23:56.091Z,17.40
2017-07-21T22:26:24.214Z,17.30
2017-07-21T22:28:52.454Z,17.30
2017-07-21T22:31:21.938Z,17.30
2017-07-21T22:33:52.062Z,17.30
2017-07-21T22:36:22.049Z,17.20
2017-07-21T22:38:50.250Z,17.20
2017-07-21T22:41:18.784Z,17.20
2017-07-21T22:43:47.987Z,17.10
2017-07-21T22:46:17.967Z,17.10
2017-07-21T22:48:46.067Z,17.10
2017-07-21T22:51:20.823Z,17.10
2017-07-21T22:53:49.406Z,17.10
2017-07-21T22:56:17.521Z,17.20
2017-07-21T22:58:46.536Z,17.30
2017-07-21T23:01:14.695Z,17.30
2017-07-21T23:03:43.855Z,17.40
2017-07-21T23:06:15.051Z,17.40
2017-07-21T23:09:04.084Z,17.50
2017-07-21T23:11:36.281Z,17.50
2017-07-21T23:14:05.104Z,17.50
2017-07-21T23:16:35.762Z,17.50
2017-07-21T23:19:03.849Z,17.50
2017-07-21T23:21:32.727Z,17.50
2017-07-21T23:24:00.819Z,17.50
2017-07-21T23:26:28.913Z,17.40
2017-07-21T23:28:57.906Z,17.40
2017-07-21T23:31:26.043Z,17.40
2017-07-21T23:33:55.228Z,17.30
2017-07-21T23:36:24.050Z,17.30
2017-07-21T23:38:52.193Z,17.20
2017-07-21T23:41:20.277Z,17.20
2017-07-21T23:43:50.632Z,17.20
2017-07-21T23:46:18.721Z,17.10
2017-07-21T23:48:59.573Z,17.10
2017-07-21T23:51:27.794Z,17.10
2017-07-21T23:53:56.747Z,17.10
2017-07-21T23:56:24.851Z,17.10
2017-07-21T23:58:53.781Z,17.20
